sensor_id;sensor_type;location;lat;lon;timestamp;pressure;altitude;pressure_sealevel;temperature;humidity
48968;BME280;46511;53.148;8.204;2023-07-13T00:00:46;101328.88;;;15.93;100.00
48968;BME280;46511;53.148;8.204;2023-07-13T00:03:18;101327.03;;;15.81;100.00
48968;BME280;46511;53.148;8.204;2023-07-13T00:05:57;101327.50;;;15.75;100.00
48968;BME280;46511;53.148;8.204;2023-07-13T00:08:30;101329.09;;;15.65;100.00
48968;BME280;46511;53.148;8.204;2023-07-13T00:11:01;101330.38;;;15.72;100.00
48968;BME280;46511;53.148;8.204;2023-07-13T00:13:33;101326.31;;;15.66;100.00
48968;BME280;46511;53.148;8.204;2023-07-13T00:16:04;101329.97;;;15.65;100.00
48968;BME280;46511;53.148;8.204;2023-07-13T00:18:36;101330.34;;;15.59;100.00
48968;BME280;46511;53.148;8.204;2023-07-13T00:21:08;101328.94;;;15.54;100.00
48968;BME280;46511;53.148;8.204;2023-07-13T00:23:39;101329.59;;;15.57;100.00
48968;BME280;46511;53.148;8.204;2023-07-13T00:26:11;101325.09;;;15.45;100.00
48968;BME280;46511;53.148;8.204;2023-07-13T00:28:43;101322.59;;;15.42;100.00
48968;BME280;46511;53.148;8.204;2023-07-13T00:31:14;101327.22;;;15.40;100.00
48968;BME280;46511;53.148;8.204;2023-07-13T00:33:46;101334.69;;;15.35;100.00
48968;BME280;46511;53.148;8.204;2023-07-13T00:36:17;101331.69;;;15.39;100.00
48968;BME280;46511;53.148;8.204;2023-07-13T00:38:48;101328.91;;;15.41;100.00
48968;BME280;46511;53.148;8.204;2023-07-13T00:41:20;101327.22;;;15.40;100.00
48968;BME280;46511;53.148;8.204;2023-07-13T00:43:51;101324.75;;;15.37;100.00
48968;BME280;46511;53.148;8.204;2023-07-13T00:46:24;101329.03;;;15.39;100.00
48968;BME280;46511;53.148;8.204;2023-07-13T00:48:57;101327.53;;;15.35;100.00
48968;BME280;46511;53.148;8.204;2023-07-13T00:51:31;101336.09;;;15.40;100.00
48968;BME280;46511;53.148;8.204;2023-07-13T00:54:04;101327.44;;;15.37;100.00
48968;BME280;46511;53.148;8.204;2023-07-13T00:56:36;101332.78;;;15.37;100.00
48968;BME280;46511;53.148;8.204;2023-07-13T00:59:08;101333.63;;;15.37;100.00
48968;BME280;46511;53.148;8.204;2023-07-13T01:01:41;101337.69;;;15.43;100.00
48968;BME280;46511;53.148;8.204;2023-07-13T01:04:12;101337.69;;;15.43;100.00
48968;BME280;46511;53.148;8.204;2023-07-13T01:06:45;101342.41;;;15.52;100.00
48968;BME280;46511;53.148;8.204;2023-07-13T01:09:18;101338.72;;;15.67;100.00
48968;BME280;46511;53.148;8.204;2023-07-13T01:11:51;101326.63;;;15.75;100.00
48968;BME280;46511;53.148;8.204;2023-07-13T01:14:22;101329.72;;;15.68;100.00
48968;BME280;46511;53.148;8.204;2023-07-13T01:16:53;101336.47;;;15.61;100.00
48968;BME280;46511;53.148;8.204;2023-07-13T01:19:44;101340.94;;;15.48;100.00
48968;BME280;46511;53.148;8.204;2023-07-13T01:22:17;101327.66;;;15.47;100.00
48968;BME280;46511;53.148;8.204;2023-07-13T01:24:48;101334.94;;;15.45;100.00
48968;BME280;46511;53.148;8.204;2023-07-13T01:27:21;101326.25;;;15.41;100.00
48968;BME280;46511;53.148;8.204;2023-07-13T01:29:54;101328.38;;;15.36;100.00
48968;BME280;46511;53.148;8.204;2023-07-13T01:32:33;101328.91;;;15.41;100.00
48968;BME280;46511;53.148;8.204;2023-07-13T01:35:05;101324.19;;;15.32;100.00
48968;BME280;46511;53.148;8.204;2023-07-13T01:37:36;101326.88;;;15.32;100.00
48968;BME280;46511;53.148;8.204;2023-07-13T01:40:07;101330.28;;;15.34;100.00
48968;BME280;46511;53.148;8.204;2023-07-13T01:42:39;101326.13;;;15.30;100.00
48968;BME280;46511;53.148;8.204;2023-07-13T01:45:11;101326.34;;;15.27;100.00
48968;BME280;46511;53.148;8.204;2023-07-13T01:47:42;101322.25;;;15.34;100.00
48968;BME280;46511;53.148;8.204;2023-07-13T01:50:13;101322.25;;;15.34;100.00
48968;BME280;46511;53.148;8.204;2023-07-13T01:52:45;101331.94;;;15.49;100.00
48968;BME280;46511;53.148;8.204;2023-07-13T01:55:16;101327.53;;;15.48;100.00
48968;BME280;46511;53.148;8.204;2023-07-13T01:57:48;101319.81;;;15.43;100.00
48968;BME280;46511;53.148;8.204;2023-07-13T02:00:20;101313.81;;;15.40;100.00
48968;BME280;46511;53.148;8.204;2023-07-13T02:02:51;101323.09;;;15.22;100.00
48968;BME280;46511;53.148;8.204;2023-07-13T02:05:22;101309.72;;;15.22;100.00
48968;BME280;46511;53.148;8.204;2023-07-13T02:07:54;101307.78;;;15.24;100.00
48968;BME280;46511;53.148;8.204;2023-07-13T02:10:25;101309.97;;;15.44;100.00
48968;BME280;46511;53.148;8.204;2023-07-13T02:12:51;101309.13;;;15.56;100.00
48968;BME280;46511;53.148;8.204;2023-07-13T02:15:22;101309.69;;;15.61;100.00
48968;BME280;46511;53.148;8.204;2023-07-13T02:17:54;101312.84;;;15.54;100.00
48968;BME280;46511;53.148;8.204;2023-07-13T02:20:25;101304.53;;;15.58;100.00
48968;BME280;46511;53.148;8.204;2023-07-13T02:22:57;101314.25;;;15.59;100.00
48968;BME280;46511;53.148;8.204;2023-07-13T02:25:29;101317.53;;;15.64;100.00
48968;BME280;46511;53.148;8.204;2023-07-13T02:28:00;101326.19;;;15.68;100.00
48968;BME280;46511;53.148;8.204;2023-07-13T02:30:31;101323.00;;;15.76;100.00
48968;BME280;46511;53.148;8.204;2023-07-13T02:33:03;101322.31;;;15.72;100.00
48968;BME280;46511;53.148;8.204;2023-07-13T02:35:34;101315.59;;;15.66;100.00
48968;BME280;46511;53.148;8.204;2023-07-13T02:38:05;101327.25;;;15.91;100.00
48968;BME280;46511;53.148;8.204;2023-07-13T02:40:36;101321.50;;;15.84;100.00
48968;BME280;46511;53.148;8.204;2023-07-13T02:43:09;101314.84;;;15.90;100.00
48968;BME280;46511;53.148;8.204;2023-07-13T02:45:43;101324.69;;;15.77;100.00
48968;BME280;46511;53.148;8.204;2023-07-13T02:48:15;101312.16;;;15.90;100.00
48968;BME280;46511;53.148;8.204;2023-07-13T02:50:46;101318.06;;;15.95;100.00
48968;BME280;46511;53.148;8.204;2023-07-13T02:53:17;101316.22;;;16.08;100.00
48968;BME280;46511;53.148;8.204;2023-07-13T02:55:49;101322.66;;;16.06;100.00
48968;BME280;46511;53.148;8.204;2023-07-13T02:58:20;101317.19;;;15.94;100.00
48968;BME280;46511;53.148;8.204;2023-07-13T03:00:47;101324.91;;;15.99;100.00
48968;BME280;46511;53.148;8.204;2023-07-13T03:03:18;101321.56;;;16.08;100.00
48968;BME280;46511;53.148;8.204;2023-07-13T03:05:57;101319.75;;;15.96;100.00
48968;BME280;46511;53.148;8.204;2023-07-13T03:08:29;101328.53;;;15.98;100.00
48968;BME280;46511;53.148;8.204;2023-07-13T03:11:02;101323.41;;;16.20;100.00
48968;BME280;46511;53.148;8.204;2023-07-13T03:13:34;101320.72;;;16.20;100.00
48968;BME280;46511;53.148;8.204;2023-07-13T03:16:00;101319.75;;;16.21;100.00
48968;BME280;46511;53.148;8.204;2023-07-13T03:18:32;101320.59;;;16.22;100.00
48968;BME280;46511;53.148;8.204;2023-07-13T03:20:58;101324.88;;;16.24;100.00
48968;BME280;46511;53.148;8.204;2023-07-13T03:23:24;101318.03;;;16.20;100.00
48968;BME280;46511;53.148;8.204;2023-07-13T03:28:56;101325.50;;;16.28;100.00
48968;BME280;46511;53.148;8.204;2023-07-13T03:31:29;101322.94;;;16.26;100.00
48968;BME280;46511;53.148;8.204;2023-07-13T03:33:56;101329.25;;;16.25;100.00
48968;BME280;46511;53.148;8.204;2023-07-13T03:36:28;101330.09;;;16.39;100.00
48968;BME280;46511;53.148;8.204;2023-07-13T03:38:56;101324.41;;;16.43;100.00
48968;BME280;46511;53.148;8.204;2023-07-13T03:41:23;101342.56;;;16.27;100.00
48968;BME280;46511;53.148;8.204;2023-07-13T03:43:50;101335.81;;;16.21;100.00
48968;BME280;46511;53.148;8.204;2023-07-13T03:46:16;101340.06;;;16.37;100.00
48968;BME280;46511;53.148;8.204;2023-07-13T03:48:44;101346.72;;;16.44;100.00
48968;BME280;46511;53.148;8.204;2023-07-13T03:51:16;101340.44;;;16.56;100.00
48968;BME280;46511;53.148;8.204;2023-07-13T03:53:47;101349.41;;;16.44;100.00
48968;BME280;46511;53.148;8.204;2023-07-13T03:56:14;101339.22;;;16.36;100.00
48968;BME280;46511;53.148;8.204;2023-07-13T03:58:47;101342.88;;;16.35;100.00
48968;BME280;46511;53.148;8.204;2023-07-13T04:01:19;101347.81;;;16.28;100.00
48968;BME280;46511;53.148;8.204;2023-07-13T04:03:46;101352.63;;;16.49;100.00
48968;BME280;46511;53.148;8.204;2023-07-13T04:06:14;101344.06;;;16.31;100.00
48968;BME280;46511;53.148;8.204;2023-07-13T04:08:42;101347.81;;;16.41;100.00
48968;BME280;46511;53.148;8.204;2023-07-13T04:11:08;101350.00;;;16.47;100.00
48968;BME280;46511;53.148;8.204;2023-07-13T04:13:34;101346.22;;;16.63;100.00
48968;BME280;46511;53.148;8.204;2023-07-13T04:16:06;101351.81;;;16.72;100.00
48968;BME280;46511;53.148;8.204;2023-07-13T04:18:37;101349.25;;;16.71;100.00
48968;BME280;46511;53.148;8.204;2023-07-13T04:21:09;101357.00;;;16.87;100.00
48968;BME280;46511;53.148;8.204;2023-07-13T04:23:36;101352.41;;;16.89;100.00
48968;BME280;46511;53.148;8.204;2023-07-13T04:26:07;101347.78;;;16.91;100.00
48968;BME280;46511;53.148;8.204;2023-07-13T04:28:33;101361.06;;;16.92;100.00
48968;BME280;46511;53.148;8.204;2023-07-13T04:31:00;101346.78;;;16.92;100.00
48968;BME280;46511;53.148;8.204;2023-07-13T04:33:31;101357.97;;;16.85;100.00
48968;BME280;46511;53.148;8.204;2023-07-13T04:36:03;101352.06;;;17.17;100.00
48968;BME280;46511;53.148;8.204;2023-07-13T04:38:35;101353.44;;;17.34;100.00
48968;BME280;46511;53.148;8.204;2023-07-13T04:41:02;101357.44;;;17.17;100.00
48968;BME280;46511;53.148;8.204;2023-07-13T04:43:29;101358.16;;;17.19;100.00
48968;BME280;46511;53.148;8.204;2023-07-13T04:45:56;101349.16;;;17.31;100.00
48968;BME280;46511;53.148;8.204;2023-07-13T04:48:27;101344.94;;;17.40;100.00
48968;BME280;46511;53.148;8.204;2023-07-13T04:50:54;101356.25;;;17.32;100.00
48968;BME280;46511;53.148;8.204;2023-07-13T04:53:20;101358.66;;;17.24;100.00
48968;BME280;46511;53.148;8.204;2023-07-13T04:55:47;101359.91;;;17.31;100.00
48968;BME280;46511;53.148;8.204;2023-07-13T04:58:18;101357.75;;;17.36;100.00
48968;BME280;46511;53.148;8.204;2023-07-13T05:00:44;101347.63;;;17.75;100.00
48968;BME280;46511;53.148;8.204;2023-07-13T05:03:15;101353.66;;;17.55;100.00
48968;BME280;46511;53.148;8.204;2023-07-13T05:06:00;101360.81;;;17.89;100.00
48968;BME280;46511;53.148;8.204;2023-07-13T05:08:26;101362.06;;;18.19;100.00
48968;BME280;46511;53.148;8.204;2023-07-13T05:11:01;101367.69;;;18.05;100.00
48968;BME280;46511;53.148;8.204;2023-07-13T05:13:33;101357.78;;;18.05;100.00
48968;BME280;46511;53.148;8.204;2023-07-13T05:16:05;101358.25;;;17.88;100.00
48968;BME280;46511;53.148;8.204;2023-07-13T05:18:39;101361.06;;;17.75;100.00
48968;BME280;46511;53.148;8.204;2023-07-13T05:21:11;101375.88;;;17.57;100.00
48968;BME280;46511;53.148;8.204;2023-07-13T05:23:37;101365.31;;;17.78;100.00
48968;BME280;46511;53.148;8.204;2023-07-13T05:26:09;101386.56;;;17.69;100.00
48968;BME280;46511;53.148;8.204;2023-07-13T05:28:40;101371.69;;;17.88;100.00
48968;BME280;46511;53.148;8.204;2023-07-13T05:31:07;101371.97;;;17.96;100.00
48968;BME280;46511;53.148;8.204;2023-07-13T05:33:34;101371.13;;;18.18;100.00
48968;BME280;46511;53.148;8.204;2023-07-13T05:36:00;101370.59;;;17.90;100.00
48968;BME280;46511;53.148;8.204;2023-07-13T05:38:27;101376.28;;;18.21;100.00
48968;BME280;46511;53.148;8.204;2023-07-13T05:40:54;101381.00;;;18.06;100.00
48968;BME280;46511;53.148;8.204;2023-07-13T05:43:21;101382.75;;;18.30;100.00
48968;BME280;46511;53.148;8.204;2023-07-13T05:45:53;101376.50;;;18.51;100.00
48968;BME280;46511;53.148;8.204;2023-07-13T05:48:20;101368.16;;;18.54;100.00
48968;BME280;46511;53.148;8.204;2023-07-13T05:50:46;101374.06;;;18.71;100.00
48968;BME280;46511;53.148;8.204;2023-07-13T05:53:13;101372.06;;;18.95;100.00
48968;BME280;46511;53.148;8.204;2023-07-13T05:55:43;101368.47;;;18.95;100.00
48968;BME280;46511;53.148;8.204;2023-07-13T05:58:12;101371.13;;;18.51;100.00
48968;BME280;46511;53.148;8.204;2023-07-13T06:00:43;101379.66;;;18.90;100.00
48968;BME280;46511;53.148;8.204;2023-07-13T06:03:15;101371.88;;;19.08;100.00
48968;BME280;46511;53.148;8.204;2023-07-13T06:05:41;101373.25;;;19.34;100.00
48968;BME280;46511;53.148;8.204;2023-07-13T06:08:13;101381.19;;;19.68;100.00
48968;BME280;46511;53.148;8.204;2023-07-13T06:10:44;101381.38;;;19.55;100.00
48968;BME280;46511;53.148;8.204;2023-07-13T06:13:15;101379.16;;;19.60;100.00
48968;BME280;46511;53.148;8.204;2023-07-13T06:15:49;101380.34;;;19.67;100.00
48968;BME280;46511;53.148;8.204;2023-07-13T06:18:16;101394.38;;;19.61;100.00
48968;BME280;46511;53.148;8.204;2023-07-13T06:20:42;101385.16;;;19.85;100.00
48968;BME280;46511;53.148;8.204;2023-07-13T06:23:08;101383.66;;;20.22;100.00
48968;BME280;46511;53.148;8.204;2023-07-13T06:25:40;101379.44;;;20.60;100.00
48968;BME280;46511;53.148;8.204;2023-07-13T06:28:11;101383.63;;;21.03;100.00
48968;BME280;46511;53.148;8.204;2023-07-13T06:30:43;101378.31;;;21.42;100.00
48968;BME280;46511;53.148;8.204;2023-07-13T06:33:09;101380.00;;;22.28;100.00
48968;BME280;46511;53.148;8.204;2023-07-13T06:35:40;101357.22;;;22.86;100.00
48968;BME280;46511;53.148;8.204;2023-07-13T06:38:11;101371.03;;;22.55;100.00
48968;BME280;46511;53.148;8.204;2023-07-13T06:40:43;101376.88;;;22.60;100.00
48968;BME280;46511;53.148;8.204;2023-07-13T06:43:14;101364.50;;;24.00;100.00
48968;BME280;46511;53.148;8.204;2023-07-13T06:45:45;101361.78;;;24.60;100.00
48968;BME280;46511;53.148;8.204;2023-07-13T06:48:14;101366.34;;;26.16;100.00
48968;BME280;46511;53.148;8.204;2023-07-13T06:50:45;101353.19;;;27.29;100.00
48968;BME280;46511;53.148;8.204;2023-07-13T06:53:17;101364.06;;;26.44;100.00
48968;BME280;46511;53.148;8.204;2023-07-13T06:55:49;101361.78;;;25.19;100.00
48968;BME280;46511;53.148;8.204;2023-07-13T06:58:16;101349.38;;;26.84;100.00
48968;BME280;46511;53.148;8.204;2023-07-13T07:00:49;101364.56;;;26.47;100.00
48968;BME280;46511;53.148;8.204;2023-07-13T07:03:16;101366.44;;;26.78;99.88
48968;BME280;46511;53.148;8.204;2023-07-13T07:05:42;101367.25;;;25.84;100.00
48968;BME280;46511;53.148;8.204;2023-07-13T07:08:08;101355.38;;;27.11;100.00
48968;BME280;46511;53.148;8.204;2023-07-13T07:10:40;101354.41;;;26.72;100.00
48968;BME280;46511;53.148;8.204;2023-07-13T07:13:11;101360.84;;;26.71;99.59
48968;BME280;46511;53.148;8.204;2023-07-13T07:15:42;101355.84;;;27.14;96.59
48968;BME280;46511;53.148;8.204;2023-07-13T07:18:08;101367.28;;;27.10;98.71
48968;BME280;46511;53.148;8.204;2023-07-13T07:20:35;101358.47;;;26.37;100.00
48968;BME280;46511;53.148;8.204;2023-07-13T07:23:01;101364.50;;;29.11;91.97
48968;BME280;46511;53.148;8.204;2023-07-13T07:25:32;101360.03;;;27.85;95.14
48968;BME280;46511;53.148;8.204;2023-07-13T07:28:08;101358.75;;;27.36;98.53
48968;BME280;46511;53.148;8.204;2023-07-13T07:30:41;101361.56;;;27.04;98.57
48968;BME280;46511;53.148;8.204;2023-07-13T07:33:13;101354.28;;;27.20;96.31
48968;BME280;46511;53.148;8.204;2023-07-13T07:35:45;101357.97;;;27.04;97.54
48968;BME280;46511;53.148;8.204;2023-07-13T07:38:16;101359.56;;;28.70;94.97
48968;BME280;46511;53.148;8.204;2023-07-13T07:40:47;101348.41;;;31.50;77.88
48968;BME280;46511;53.148;8.204;2023-07-13T07:43:18;101362.41;;;29.13;79.99
48968;BME280;46511;53.148;8.204;2023-07-13T07:45:50;101355.97;;;29.64;84.47
48968;BME280;46511;53.148;8.204;2023-07-13T07:48:16;101346.84;;;30.47;76.48
48968;BME280;46511;53.148;8.204;2023-07-13T07:50:47;101351.31;;;32.15;62.57
48968;BME280;46511;53.148;8.204;2023-07-13T07:53:18;101353.88;;;29.94;77.45
48968;BME280;46511;53.148;8.204;2023-07-13T07:55:50;101349.50;;;33.87;64.09
48968;BME280;46511;53.148;8.204;2023-07-13T07:58:17;101359.75;;;33.79;54.99
48968;BME280;46511;53.148;8.204;2023-07-13T08:00:48;101363.63;;;33.15;52.46
48968;BME280;46511;53.148;8.204;2023-07-13T08:03:19;101358.47;;;33.25;50.69
48968;BME280;46511;53.148;8.204;2023-07-13T08:05:53;101360.91;;;34.33;49.68
48968;BME280;46511;53.148;8.204;2023-07-13T08:08:25;101345.91;;;34.48;48.24
48968;BME280;46511;53.148;8.204;2023-07-13T08:10:56;101341.88;;;34.99;44.16
48968;BME280;46511;53.148;8.204;2023-07-13T08:13:27;101358.16;;;34.15;46.95
48968;BME280;46511;53.148;8.204;2023-07-13T08:15:59;101344.50;;;34.20;44.87
48968;BME280;46511;53.148;8.204;2023-07-13T08:18:30;101359.66;;;34.29;43.33
48968;BME280;46511;53.148;8.204;2023-07-13T08:21:05;101357.09;;;34.53;43.77
48968;BME280;46511;53.148;8.204;2023-07-13T08:23:36;101378.25;;;32.71;44.97
48968;BME280;46511;53.148;8.204;2023-07-13T08:26:09;101351.22;;;33.88;45.23
48968;BME280;46511;53.148;8.204;2023-07-13T08:28:40;101353.44;;;32.84;49.21
48968;BME280;46511;53.148;8.204;2023-07-13T08:31:12;101353.22;;;34.42;46.02
48968;BME280;46511;53.148;8.204;2023-07-13T08:33:43;101347.00;;;32.52;46.31
48968;BME280;46511;53.148;8.204;2023-07-13T08:36:14;101356.09;;;33.61;47.86
48968;BME280;46511;53.148;8.204;2023-07-13T08:38:45;101361.91;;;33.77;44.23
48968;BME280;46511;53.148;8.204;2023-07-13T08:41:17;101361.66;;;32.20;49.66
48968;BME280;46511;53.148;8.204;2023-07-13T08:43:50;101354.19;;;32.53;53.52
48968;BME280;46511;53.148;8.204;2023-07-13T08:46:26;101356.22;;;31.27;59.50
48968;BME280;46511;53.148;8.204;2023-07-13T08:49:05;101358.72;;;31.22;62.21
48968;BME280;46511;53.148;8.204;2023-07-13T08:54:36;101349.88;;;34.33;41.10
48968;BME280;46511;53.148;8.204;2023-07-13T08:57:15;101350.44;;;32.41;49.52
48968;BME280;46511;53.148;8.204;2023-07-13T08:59:47;101355.81;;;31.70;51.50
48968;BME280;46511;53.148;8.204;2023-07-13T09:05:13;101357.41;;;29.38;64.79
48968;BME280;46511;53.148;8.204;2023-07-13T09:08:05;101369.47;;;29.22;69.87
48968;BME280;46511;53.148;8.204;2023-07-13T09:10:44;101357.28;;;31.66;51.67
48968;BME280;46511;53.148;8.204;2023-07-13T09:15:47;101377.22;;;33.10;41.67
48968;BME280;46511;53.148;8.204;2023-07-13T09:18:27;101356.34;;;34.46;37.47
48968;BME280;46511;53.148;8.204;2023-07-13T09:23:30;101367.19;;;31.40;44.16
48968;BME280;46511;53.148;8.204;2023-07-13T09:26:08;101365.78;;;27.53;72.76
48968;BME280;46511;53.148;8.204;2023-07-13T09:28:43;101373.53;;;25.60;92.52
48968;BME280;46511;53.148;8.204;2023-07-13T09:31:15;101357.97;;;30.32;62.17
48968;BME280;46511;53.148;8.204;2023-07-13T09:33:48;101353.56;;;34.46;43.27
48968;BME280;46511;53.148;8.204;2023-07-13T09:36:22;101352.09;;;33.81;41.70
48968;BME280;46511;53.148;8.204;2023-07-13T09:41:33;101362.25;;;28.49;63.89
48968;BME280;46511;53.148;8.204;2023-07-13T09:44:08;101354.06;;;26.67;84.67
48968;BME280;46511;53.148;8.204;2023-07-13T09:47:01;101366.06;;;29.63;62.81
48968;BME280;46511;53.148;8.204;2023-07-13T09:49:35;101363.59;;;34.22;43.31
48968;BME280;46511;53.148;8.204;2023-07-13T09:52:10;101376.34;;;35.08;36.22
48968;BME280;46511;53.148;8.204;2023-07-13T09:54:45;101380.03;;;32.39;41.88
48968;BME280;46511;53.148;8.204;2023-07-13T09:57:18;101368.69;;;33.50;40.61
48968;BME280;46511;53.148;8.204;2023-07-13T09:59:51;101365.75;;;32.68;42.17
48968;BME280;46511;53.148;8.204;2023-07-13T10:02:30;101369.56;;;29.36;57.31
48968;BME280;46511;53.148;8.204;2023-07-13T10:05:05;101372.69;;;26.56;81.73
48968;BME280;46511;53.148;8.204;2023-07-13T10:07:40;101377.31;;;27.40;82.70
48968;BME280;46511;53.148;8.204;2023-07-13T10:10:16;101371.31;;;30.96;52.11
48968;BME280;46511;53.148;8.204;2023-07-13T10:12:49;101365.25;;;32.91;42.90
48968;BME280;46511;53.148;8.204;2023-07-13T10:15:22;101366.19;;;35.85;34.60
48968;BME280;46511;53.148;8.204;2023-07-13T10:17:54;101370.91;;;35.96;34.26
48968;BME280;46511;53.148;8.204;2023-07-13T10:20:26;101377.59;;;35.77;33.53
48968;BME280;46511;53.148;8.204;2023-07-13T10:23:05;101377.72;;;36.81;32.99
48968;BME280;46511;53.148;8.204;2023-07-13T10:25:39;101373.81;;;38.40;29.91
48968;BME280;46511;53.148;8.204;2023-07-13T10:28:25;101380.50;;;35.82;32.68
48968;BME280;46511;53.148;8.204;2023-07-13T10:30:58;101388.09;;;36.22;32.71
48968;BME280;46511;53.148;8.204;2023-07-13T10:33:31;101374.16;;;34.98;33.72
48968;BME280;46511;53.148;8.204;2023-07-13T10:36:16;101399.56;;;31.91;39.07
48968;BME280;46511;53.148;8.204;2023-07-13T10:38:48;101397.50;;;28.73;64.48
48968;BME280;46511;53.148;8.204;2023-07-13T10:41:22;101395.38;;;27.18;83.15
48968;BME280;46511;53.148;8.204;2023-07-13T10:43:55;101399.63;;;26.42;92.95
48968;BME280;46511;53.148;8.204;2023-07-13T10:46:28;101414.19;;;25.70;97.85
48968;BME280;46511;53.148;8.204;2023-07-13T10:49:01;101418.84;;;24.68;100.00
48968;BME280;46511;53.148;8.204;2023-07-13T10:51:33;101430.84;;;23.80;100.00
48968;BME280;46511;53.148;8.204;2023-07-13T10:54:19;101445.75;;;23.13;100.00
48968;BME280;46511;53.148;8.204;2023-07-13T10:57:07;101480.88;;;22.01;100.00
48968;BME280;46511;53.148;8.204;2023-07-13T10:59:39;101482.19;;;21.08;100.00
48968;BME280;46511;53.148;8.204;2023-07-13T11:02:15;101506.41;;;19.96;100.00
48968;BME280;46511;53.148;8.204;2023-07-13T11:04:52;101508.72;;;19.03;100.00
48968;BME280;46511;53.148;8.204;2023-07-13T11:07:25;101528.50;;;18.57;100.00
48968;BME280;46511;53.148;8.204;2023-07-13T11:09:59;101541.44;;;17.94;100.00
48968;BME280;46511;53.148;8.204;2023-07-13T11:15:28;101551.69;;;17.16;100.00
48968;BME280;46511;53.148;8.204;2023-07-13T11:18:04;101560.19;;;17.10;100.00
48968;BME280;46511;53.148;8.204;2023-07-13T11:20:34;101572.22;;;16.92;100.00
48968;BME280;46511;53.148;8.204;2023-07-13T11:23:17;101578.53;;;16.65;100.00
48968;BME280;46511;53.148;8.204;2023-07-13T11:25:44;101582.75;;;16.82;100.00
48968;BME280;46511;53.148;8.204;2023-07-13T11:28:17;101583.59;;;17.08;100.00
48968;BME280;46511;53.148;8.204;2023-07-13T11:36:16;101578.72;;;17.75;100.00
48968;BME280;46511;53.148;8.204;2023-07-13T11:38:47;101575.34;;;17.84;100.00
48968;BME280;46511;53.148;8.204;2023-07-13T11:41:17;101585.00;;;17.63;100.00
48968;BME280;46511;53.148;8.204;2023-07-13T11:43:50;101583.06;;;18.13;100.00
48968;BME280;46511;53.148;8.204;2023-07-13T11:46:23;101591.47;;;18.43;100.00
48968;BME280;46511;53.148;8.204;2023-07-13T11:48:50;101595.75;;;18.81;100.00
48968;BME280;46511;53.148;8.204;2023-07-13T11:51:29;101591.59;;;18.77;100.00
48968;BME280;46511;53.148;8.204;2023-07-13T11:53:57;101577.66;;;19.28;100.00
48968;BME280;46511;53.148;8.204;2023-07-13T11:56:25;101565.78;;;19.85;100.00
48968;BME280;46511;53.148;8.204;2023-07-13T11:58:52;101552.00;;;22.69;100.00
48968;BME280;46511;53.148;8.204;2023-07-13T12:01:26;101533.53;;;25.06;100.00
48968;BME280;46511;53.148;8.204;2023-07-13T12:04:03;101508.63;;;28.37;100.00
48968;BME280;46511;53.148;8.204;2023-07-13T12:06:37;101511.91;;;27.32;100.00
48968;BME280;46511;53.148;8.204;2023-07-13T12:09:12;101511.66;;;28.57;96.65
48968;BME280;46511;53.148;8.204;2023-07-13T12:11:43;101516.22;;;29.60;94.94
48968;BME280;46511;53.148;8.204;2023-07-13T12:14:15;101516.22;;;28.94;93.12
48968;BME280;46511;53.148;8.204;2023-07-13T12:16:42;101521.81;;;27.56;99.87
48968;BME280;46511;53.148;8.204;2023-07-13T12:19:18;101521.53;;;25.75;100.00
48968;BME280;46511;53.148;8.204;2023-07-13T12:21:52;101520.16;;;24.87;100.00
48968;BME280;46511;53.148;8.204;2023-07-13T12:24:24;101532.75;;;24.88;100.00
48968;BME280;46511;53.148;8.204;2023-07-13T12:27:00;101517.25;;;24.10;100.00
48968;BME280;46511;53.148;8.204;2023-07-13T12:29:32;101524.94;;;25.94;100.00
48968;BME280;46511;53.148;8.204;2023-07-13T12:32:07;101525.06;;;29.11;86.66
48968;BME280;46511;53.148;8.204;2023-07-13T12:34:49;101531.47;;;32.71;62.79
48968;BME280;46511;53.148;8.204;2023-07-13T12:37:22;101526.19;;;32.29;56.00
48968;BME280;46511;53.148;8.204;2023-07-13T12:39:53;101525.06;;;36.13;43.28
48968;BME280;46511;53.148;8.204;2023-07-13T12:42:25;101535.28;;;34.42;44.91
48968;BME280;46511;53.148;8.204;2023-07-13T12:45:03;101534.88;;;34.39;41.29
48968;BME280;46511;53.148;8.204;2023-07-13T12:47:41;101544.75;;;33.00;49.17
48968;BME280;46511;53.148;8.204;2023-07-13T12:50:18;101536.44;;;30.72;60.82
48968;BME280;46511;53.148;8.204;2023-07-13T12:52:54;101527.78;;;30.19;65.54
48968;BME280;46511;53.148;8.204;2023-07-13T12:55:25;101530.34;;;29.63;67.94
48968;BME280;46511;53.148;8.204;2023-07-13T12:57:58;101529.66;;;27.59;81.60
48968;BME280;46511;53.148;8.204;2023-07-13T13:00:33;101527.94;;;26.80;87.38
48968;BME280;46511;53.148;8.204;2023-07-13T13:03:07;101536.00;;;26.65;89.23
48968;BME280;46511;53.148;8.204;2023-07-13T13:05:43;101524.44;;;26.55;90.09
48968;BME280;46511;53.148;8.204;2023-07-13T13:08:15;101519.44;;;26.83;87.78
48968;BME280;46511;53.148;8.204;2023-07-13T13:10:47;101532.63;;;25.98;94.06
48968;BME280;46511;53.148;8.204;2023-07-13T13:13:18;101536.16;;;26.15;91.41
48968;BME280;46511;53.148;8.204;2023-07-13T13:15:49;101535.34;;;25.31;95.42
48968;BME280;46511;53.148;8.204;2023-07-13T13:18:22;101522.88;;;24.35;100.00
48968;BME280;46511;53.148;8.204;2023-07-13T13:20:54;101524.72;;;24.08;100.00
48968;BME280;46511;53.148;8.204;2023-07-13T13:23:25;101524.78;;;23.08;100.00
48968;BME280;46511;53.148;8.204;2023-07-13T13:25:56;101529.03;;;23.38;100.00
48968;BME280;46511;53.148;8.204;2023-07-13T13:28:28;101528.03;;;23.84;100.00
48968;BME280;46511;53.148;8.204;2023-07-13T13:31:00;101526.53;;;24.26;100.00